sensor_id;sensor_type;location;lat;lon;timestamp;P1;durP1;ratioP1;P2;durP2;ratioP2
51491;SDS011;37569;50.548;8.778;2022-11-20T00:04:49;15.2;;;10.1;;
51491;SDS011;37569;50.548;8.778;2022-11-20T00:09:49;14.9;;;9.9;;
51491;SDS011;37569;50.548;8.778;2022-11-20T00:14:49;15.3;;;10.2;;
51491;SDS011;37569;50.548;8.778;2022-11-20T00:19:49;14.6;;;9.4;;
51491;SDS011;37569;50.548;8.778;2022-11-20T00:24:49;15.6;;;10.2;;
51491;SDS011;37569;50.548;8.778;2022-11-20T00:29:49;15.9;;;10.3;;
51491;SDS011;37569;50.548;8.778;2022-11-20T00:34:49;13.8;;;9.7;;
51491;SDS011;37569;50.548;8.778;2022-11-20T00:39:50;14.2;;;9.2;;
51491;SDS011;37569;50.548;8.778;2022-11-20T00:44:50;15.7;;;9.9;;
51491;SDS011;37569;50.548;8.778;2022-11-20T00:49:50;14.9;;;9.7;;
51491;SDS011;37569;50.548;8.778;2022-11-20T00:54:50;16.4;;;10.3;;
51491;SDS011;37569;50.548;8.778;2022-11-20T00:59:50;13.5;;;9.3;;
51491;SDS011;37569;50.548;8.778;2022-11-20T01:04:50;16;;;10.3;;
51491;SDS011;37569;50.548;8.778;2022-11-20T01:09:50;14.5;;;9.3;;
51491;SDS011;37569;50.548;8.778;2022-11-20T01:14:50;13.9;;;9.1;;
51491;SDS011;37569;50.548;8.778;2022-11-20T01:19:50;15.3;;;10.2;;
51491;SDS011;37569;50.548;8.778;2022-11-20T01:24:50;18.3;;;11.9;;
51491;SDS011;37569;50.548;8.778;2022-11-20T01:29:50;14.4;;;10.1;;
51491;SDS011;37569;50.548;8.778;2022-11-20T01:34:50;15.8;;;10.7;;
51491;SDS011;37569;50.548;8.778;2022-11-20T01:39:50;16.1;;;10.4;;
51491;SDS011;37569;50.548;8.778;2022-11-20T01:44:52;15.5;;;10.3;;
51491;SDS011;37569;50.548;8.778;2022-11-20T01:49:51;15.4;;;10.2;;
51491;SDS011;37569;50.548;8.778;2022-11-20T01:54:52;15.3;;;9.9;;
51491;SDS011;37569;50.548;8.778;2022-11-20T01:59:51;16.4;;;10.5;;
51491;SDS011;37569;50.548;8.778;2022-11-20T02:04:51;15.7;;;10;;
51491;SDS011;37569;50.548;8.778;2022-11-20T02:09:50;16.4;;;10.9;;
51491;SDS011;37569;50.548;8.778;2022-11-20T02:14:50;20.3;;;12.8;;
51491;SDS011;37569;50.548;8.778;2022-11-20T02:19:50;15.4;;;11.4;;
51491;SDS011;37569;50.548;8.778;2022-11-20T02:24:50;18.5;;;13.2;;
51491;SDS011;37569;50.548;8.778;2022-11-20T02:29:51;15.6;;;11.1;;
51491;SDS011;37569;50.548;8.778;2022-11-20T02:34:50;17.4;;;11.4;;
51491;SDS011;37569;50.548;8.778;2022-11-20T02:39:51;15.5;;;10.6;;
51491;SDS011;37569;50.548;8.778;2022-11-20T02:44:50;17.1;;;11.2;;
51491;SDS011;37569;50.548;8.778;2022-11-20T02:49:50;15.7;;;11.1;;
51491;SDS011;37569;50.548;8.778;2022-11-20T02:54:50;16.7;;;10.7;;
51491;SDS011;37569;50.548;8.778;2022-11-20T02:59:50;17.1;;;11.4;;
51491;SDS011;37569;50.548;8.778;2022-11-20T03:04:50;17;;;11.5;;
51491;SDS011;37569;50.548;8.778;2022-11-20T03:09:50;17.3;;;11.7;;
51491;SDS011;37569;50.548;8.778;2022-11-20T03:14:50;17.7;;;12.2;;
51491;SDS011;37569;50.548;8.778;2022-11-20T03:19:50;15.5;;;10.8;;
51491;SDS011;37569;50.548;8.778;2022-11-20T03:24:50;16.5;;;11.3;;
51491;SDS011;37569;50.548;8.778;2022-11-20T03:29:50;16.6;;;11.6;;
51491;SDS011;37569;50.548;8.778;2022-11-20T03:34:50;17.3;;;11.5;;
51491;SDS011;37569;50.548;8.778;2022-11-20T03:39:51;16;;;11;;
51491;SDS011;37569;50.548;8.778;2022-11-20T03:44:51;17;;;11.4;;
51491;SDS011;37569;50.548;8.778;2022-11-20T03:49:51;18;;;11.3;;
51491;SDS011;37569;50.548;8.778;2022-11-20T03:54:51;16.9;;;11;;
51491;SDS011;37569;50.548;8.778;2022-11-20T03:59:51;17.2;;;11.8;;
51491;SDS011;37569;50.548;8.778;2022-11-20T04:04:51;17.8;;;11.5;;
51491;SDS011;37569;50.548;8.778;2022-11-20T04:09:51;17.7;;;11.6;;
51491;SDS011;37569;50.548;8.778;2022-11-20T04:14:51;17.5;;;11.5;;
51491;SDS011;37569;50.548;8.778;2022-11-20T04:19:51;16.1;;;11.3;;
51491;SDS011;37569;50.548;8.778;2022-11-20T04:24:51;17.6;;;12.1;;
51491;SDS011;37569;50.548;8.778;2022-11-20T04:29:51;16.6;;;11.5;;
51491;SDS011;37569;50.548;8.778;2022-11-20T04:34:51;17.8;;;11.5;;
51491;SDS011;37569;50.548;8.778;2022-11-20T04:39:51;17.1;;;11.2;;
51491;SDS011;37569;50.548;8.778;2022-11-20T04:44:51;17.5;;;11.4;;
51491;SDS011;37569;50.548;8.778;2022-11-20T04:49:51;18.2;;;11.6;;
51491;SDS011;37569;50.548;8.778;2022-11-20T04:54:51;17.7;;;11.6;;
51491;SDS011;37569;50.548;8.778;2022-11-20T04:59:51;16.9;;;11.4;;
51491;SDS011;37569;50.548;8.778;2022-11-20T05:04:51;20.2;;;12.3;;
51491;SDS011;37569;50.548;8.778;2022-11-20T05:09:51;16.6;;;10.9;;
51491;SDS011;37569;50.548;8.778;2022-11-20T05:14:51;18.1;;;12.3;;
51491;SDS011;37569;50.548;8.778;2022-11-20T05:19:52;16.2;;;11.1;;
51491;SDS011;37569;50.548;8.778;2022-11-20T05:24:52;16.5;;;10.7;;
51491;SDS011;37569;50.548;8.778;2022-11-20T05:29:52;17.1;;;11.7;;
51491;SDS011;37569;50.548;8.778;2022-11-20T05:34:52;16.6;;;11.5;;
51491;SDS011;37569;50.548;8.778;2022-11-20T05:39:52;18.2;;;11.8;;
51491;SDS011;37569;50.548;8.778;2022-11-20T05:44:52;16.7;;;11.7;;
51491;SDS011;37569;50.548;8.778;2022-11-20T05:49:52;17.9;;;12.7;;
51491;SDS011;37569;50.548;8.778;2022-11-20T05:54:52;20.1;;;11.6;;
51491;SDS011;37569;50.548;8.778;2022-11-20T05:59:52;19.1;;;12.3;;
51491;SDS011;37569;50.548;8.778;2022-11-20T06:04:52;19.5;;;12.8;;
51491;SDS011;37569;50.548;8.778;2022-11-20T06:09:52;19;;;13.1;;
51491;SDS011;37569;50.548;8.778;2022-11-20T06:14:52;21.3;;;13.6;;
51491;SDS011;37569;50.548;8.778;2022-11-20T06:19:52;19.6;;;12.8;;
51491;SDS011;37569;50.548;8.778;2022-11-20T06:24:52;21.8;;;13.5;;
51491;SDS011;37569;50.548;8.778;2022-11-20T06:29:52;22.8;;;15.2;;
51491;SDS011;37569;50.548;8.778;2022-11-20T06:34:52;22.3;;;14.5;;
51491;SDS011;37569;50.548;8.778;2022-11-20T06:39:52;23.2;;;14.6;;
51491;SDS011;37569;50.548;8.778;2022-11-20T06:44:52;21.1;;;13.6;;
51491;SDS011;37569;50.548;8.778;2022-11-20T06:49:52;21.2;;;13.8;;
51491;SDS011;37569;50.548;8.778;2022-11-20T06:54:52;21.7;;;13.6;;
51491;SDS011;37569;50.548;8.778;2022-11-20T06:59:52;22.6;;;15;;
51491;SDS011;37569;50.548;8.778;2022-11-20T07:04:52;22.5;;;14.5;;
51491;SDS011;37569;50.548;8.778;2022-11-20T07:09:52;23.9;;;14.9;;
51491;SDS011;37569;50.548;8.778;2022-11-20T07:14:53;26.2;;;15.9;;
51491;SDS011;37569;50.548;8.778;2022-11-20T07:19:53;29.1;;;16.8;;
51491;SDS011;37569;50.548;8.778;2022-11-20T07:24:53;25.6;;;14.9;;
51491;SDS011;37569;50.548;8.778;2022-11-20T07:29:53;28.4;;;16.8;;
51491;SDS011;37569;50.548;8.778;2022-11-20T07:34:53;27.9;;;16.9;;
51491;SDS011;37569;50.548;8.778;2022-11-20T07:39:53;27.9;;;16.7;;
51491;SDS011;37569;50.548;8.778;2022-11-20T07:44:53;27.8;;;17;;
51491;SDS011;37569;50.548;8.778;2022-11-20T07:49:53;28.8;;;17.5;;
51491;SDS011;37569;50.548;8.778;2022-11-20T07:54:53;28.4;;;18.9;;
51491;SDS011;37569;50.548;8.778;2022-11-20T07:59:53;28.2;;;17.6;;
51491;SDS011;37569;50.548;8.778;2022-11-20T08:04:53;28.5;;;16.7;;
51491;SDS011;37569;50.548;8.778;2022-11-20T08:09:53;42;;;23.8;;
51491;SDS011;37569;50.548;8.778;2022-11-20T08:14:53;32.5;;;19.1;;
51491;SDS011;37569;50.548;8.778;2022-11-20T08:19:53;34.2;;;20.3;;
51491;SDS011;37569;50.548;8.778;2022-11-20T08:24:53;32.5;;;19;;
51491;SDS011;37569;50.548;8.778;2022-11-20T08:29:53;31.8;;;17.7;;
51491;SDS011;37569;50.548;8.778;2022-11-20T08:34:53;29.4;;;17.7;;
51491;SDS011;37569;50.548;8.778;2022-11-20T08:39:53;28.7;;;17.2;;
51491;SDS011;37569;50.548;8.778;2022-11-20T08:44:53;31.2;;;17.2;;
51491;SDS011;37569;50.548;8.778;2022-11-20T08:49:53;32.3;;;18.3;;
51491;SDS011;37569;50.548;8.778;2022-11-20T08:54:53;30.1;;;17.6;;
51491;SDS011;37569;50.548;8.778;2022-11-20T08:59:54;32;;;18.2;;
51491;SDS011;37569;50.548;8.778;2022-11-20T09:04:54;28.5;;;17.3;;
51491;SDS011;37569;50.548;8.778;2022-11-20T09:09:54;28.6;;;17.4;;
51491;SDS011;37569;50.548;8.778;2022-11-20T09:14:54;28.9;;;17.5;;
51491;SDS011;37569;50.548;8.778;2022-11-20T09:19:54;29.2;;;18.3;;
51491;SDS011;37569;50.548;8.778;2022-11-20T09:24:54;30.1;;;17.8;;
51491;SDS011;37569;50.548;8.778;2022-11-20T09:29:54;32.3;;;19.1;;
51491;SDS011;37569;50.548;8.778;2022-11-20T09:34:54;30.3;;;17.8;;
51491;SDS011;37569;50.548;8.778;2022-11-20T09:39:54;33.1;;;17.9;;
51491;SDS011;37569;50.548;8.778;2022-11-20T09:44:59;34.6;;;19.5;;
51491;SDS011;37569;50.548;8.778;2022-11-20T09:49:58;33.6;;;19.3;;
51491;SDS011;37569;50.548;8.778;2022-11-20T09:54:54;33.5;;;18.7;;
51491;SDS011;37569;50.548;8.778;2022-11-20T09:59:56;43.1;;;22.7;;
51491;SDS011;37569;50.548;8.778;2022-11-20T10:04:56;50.5;;;26;;
51491;SDS011;37569;50.548;8.778;2022-11-20T10:09:55;40.5;;;20.7;;
51491;SDS011;37569;50.548;8.778;2022-11-20T10:14:58;34.3;;;19.1;;
51491;SDS011;37569;50.548;8.778;2022-11-20T10:19:59;34.7;;;19.3;;
51491;SDS011;37569;50.548;8.778;2022-11-20T10:24:56;35.1;;;20.1;;
51491;SDS011;37569;50.548;8.778;2022-11-20T10:29:58;29.8;;;17.3;;
51491;SDS011;37569;50.548;8.778;2022-11-20T10:34:57;26.6;;;15.5;;
51491;SDS011;37569;50.548;8.778;2022-11-20T10:39:56;26.5;;;15;;
51491;SDS011;37569;50.548;8.778;2022-11-20T10:44:58;20;;;11.9;;
51491;SDS011;37569;50.548;8.778;2022-11-20T10:49:56;22.3;;;13.1;;
51491;SDS011;37569;50.548;8.778;2022-11-20T10:54:57;20;;;12;;
51491;SDS011;37569;50.548;8.778;2022-11-20T11:00:00;18.3;;;10.8;;
51491;SDS011;37569;50.548;8.778;2022-11-20T11:04:56;19;;;11.7;;
51491;SDS011;37569;50.548;8.778;2022-11-20T11:09:56;19.7;;;11.7;;
51491;SDS011;37569;50.548;8.778;2022-11-20T11:14:56;21.4;;;12.9;;
51491;SDS011;37569;50.548;8.778;2022-11-20T11:19:57;22.9;;;12.8;;
51491;SDS011;37569;50.548;8.778;2022-11-20T11:24:56;24;;;13.7;;
51491;SDS011;37569;50.548;8.778;2022-11-20T11:30:11;22.8;;;12.4;;
51491;SDS011;37569;50.548;8.778;2022-11-20T11:35:00;23.6;;;13;;
51491;SDS011;37569;50.548;8.778;2022-11-20T11:39:56;21.2;;;13.5;;
51491;SDS011;37569;50.548;8.778;2022-11-20T11:44:57;24.1;;;14;;
51491;SDS011;37569;50.548;8.778;2022-11-20T11:50:01;23.4;;;13.5;;
51491;SDS011;37569;50.548;8.778;2022-11-20T11:54:57;26.4;;;14.2;;
51491;SDS011;37569;50.548;8.778;2022-11-20T12:00:00;27.4;;;13.9;;
51491;SDS011;37569;50.548;8.778;2022-11-20T12:04:57;26.2;;;14.2;;
51491;SDS011;37569;50.548;8.778;2022-11-20T12:09:57;27.6;;;15.5;;
51491;SDS011;37569;50.548;8.778;2022-11-20T12:14:57;28.2;;;15.2;;
51491;SDS011;37569;50.548;8.778;2022-11-20T12:19:57;29.5;;;16.5;;
51491;SDS011;37569;50.548;8.778;2022-11-20T12:24:59;29.2;;;15.5;;
51491;SDS011;37569;50.548;8.778;2022-11-20T12:29:59;31.8;;;16.9;;
51491;SDS011;37569;50.548;8.778;2022-11-20T12:35:00;26.3;;;15;;
51491;SDS011;37569;50.548;8.778;2022-11-20T12:39:58;26.3;;;14.8;;
51491;SDS011;37569;50.548;8.778;2022-11-20T12:45:02;25.5;;;14.6;;
51491;SDS011;37569;50.548;8.778;2022-11-20T12:50:00;31.3;;;17.5;;
51491;SDS011;37569;50.548;8.778;2022-11-20T12:55:02;28.5;;;15.1;;
51491;SDS011;37569;50.548;8.778;2022-11-20T13:00:01;57.9;;;31.1;;
51491;SDS011;37569;50.548;8.778;2022-11-20T13:05:03;38.2;;;22.7;;
51491;SDS011;37569;50.548;8.778;2022-11-20T13:09:59;27.7;;;15.8;;
51491;SDS011;37569;50.548;8.778;2022-11-20T13:15:01;26.3;;;14.7;;
51491;SDS011;37569;50.548;8.778;2022-11-20T13:19:59;26.6;;;15;;
51491;SDS011;37569;50.548;8.778;2022-11-20T13:24:59;24.7;;;13.7;;
51491;SDS011;37569;50.548;8.778;2022-11-20T13:30:00;24.1;;;13.9;;
51491;SDS011;37569;50.548;8.778;2022-11-20T13:35:00;24;;;13.9;;
51491;SDS011;37569;50.548;8.778;2022-11-20T13:40:20;24.8;;;14;;
51491;SDS011;37569;50.548;8.778;2022-11-20T13:45:01;29.7;;;15.7;;
51491;SDS011;37569;50.548;8.778;2022-11-20T13:50:00;28.3;;;15.2;;
51491;SDS011;37569;50.548;8.778;2022-11-20T13:55:03;30.8;;;16.2;;
51491;SDS011;37569;50.548;8.778;2022-11-20T14:00:03;27.1;;;15.7;;
51491;SDS011;37569;50.548;8.778;2022-11-20T14:05:00;27;;;15.7;;
51491;SDS011;37569;50.548;8.778;2022-11-20T14:10:00;25.8;;;14.9;;
51491;SDS011;37569;50.548;8.778;2022-11-20T14:15:00;24.8;;;15.2;;
51491;SDS011;37569;50.548;8.778;2022-11-20T14:20:01;27.9;;;15.7;;
51491;SDS011;37569;50.548;8.778;2022-11-20T14:25:02;29.7;;;16.8;;
51491;SDS011;37569;50.548;8.778;2022-11-20T14:30:01;29.3;;;16.1;;
51491;SDS011;37569;50.548;8.778;2022-11-20T14:35:02;29.2;;;17;;
51491;SDS011;37569;50.548;8.778;2022-11-20T14:40:01;31.3;;;17.7;;
51491;SDS011;37569;50.548;8.778;2022-11-20T14:45:01;29.2;;;17.8;;
51491;SDS011;37569;50.548;8.778;2022-11-20T14:50:01;33.9;;;18;;
51491;SDS011;37569;50.548;8.778;2022-11-20T14:55:01;32.1;;;18.1;;
51491;SDS011;37569;50.548;8.778;2022-11-20T15:00:05;33.4;;;18.6;;
51491;SDS011;37569;50.548;8.778;2022-11-20T15:05:02;35;;;18.7;;
51491;SDS011;37569;50.548;8.778;2022-11-20T15:10:03;32.8;;;18.3;;
51491;SDS011;37569;50.548;8.778;2022-11-20T15:15:01;31.2;;;17.9;;
51491;SDS011;37569;50.548;8.778;2022-11-20T15:20:02;35.3;;;18.2;;
51491;SDS011;37569;50.548;8.778;2022-11-20T15:25:04;33.8;;;18.2;;
51491;SDS011;37569;50.548;8.778;2022-11-20T15:30:02;30.9;;;17.5;;
51491;SDS011;37569;50.548;8.778;2022-11-20T15:35:02;34.9;;;18.1;;
51491;SDS011;37569;50.548;8.778;2022-11-20T15:40:02;34.5;;;18.5;;
51491;SDS011;37569;50.548;8.778;2022-11-20T15:45:02;33.4;;;18.4;;
51491;SDS011;37569;50.548;8.778;2022-11-20T15:50:02;34.5;;;18.1;;
51491;SDS011;37569;50.548;8.778;2022-11-20T15:55:04;34.9;;;19.4;;
51491;SDS011;37569;50.548;8.778;2022-11-20T16:00:02;37.4;;;19.4;;
51491;SDS011;37569;50.548;8.778;2022-11-20T16:05:02;38.7;;;19.2;;
51491;SDS011;37569;50.548;8.778;2022-11-20T16:10:03;36.7;;;18.8;;
51491;SDS011;37569;50.548;8.778;2022-11-20T16:15:03;35.3;;;18.9;;
51491;SDS011;37569;50.548;8.778;2022-11-20T16:20:03;38.8;;;20.1;;
51491;SDS011;37569;50.548;8.778;2022-11-20T16:25:03;41.3;;;19.5;;
51491;SDS011;37569;50.548;8.778;2022-11-20T16:30:03;41.5;;;20.5;;
51491;SDS011;37569;50.548;8.778;2022-11-20T16:35:03;43.6;;;20.1;;
51491;SDS011;37569;50.548;8.778;2022-11-20T16:40:03;44.7;;;20.8;;
51491;SDS011;37569;50.548;8.778;2022-11-20T16:45:03;47.3;;;20.7;;
51491;SDS011;37569;50.548;8.778;2022-11-20T16:50:03;48.1;;;21.7;;
51491;SDS011;37569;50.548;8.778;2022-11-20T16:55:03;61.2;;;22;;
51491;SDS011;37569;50.548;8.778;2022-11-20T17:00:04;56.1;;;22.3;;
51491;SDS011;37569;50.548;8.778;2022-11-20T17:05:04;61.6;;;24.7;;
51491;SDS011;37569;50.548;8.778;2022-11-20T17:10:04;66.4;;;22.5;;
51491;SDS011;37569;50.548;8.778;2022-11-20T17:15:04;76.6;;;31.5;;
51491;SDS011;37569;50.548;8.778;2022-11-20T17:20:04;62.9;;;23.7;;
51491;SDS011;37569;50.548;8.778;2022-11-20T17:25:04;54.9;;;22;;
51491;SDS011;37569;50.548;8.778;2022-11-20T17:30:04;49.8;;;23.3;;
51491;SDS011;37569;50.548;8.778;2022-11-20T17:35:05;54.9;;;22.9;;
51491;SDS011;37569;50.548;8.778;2022-11-20T17:40:05;49.2;;;22;;
51491;SDS011;37569;50.548;8.778;2022-11-20T17:45:05;51.6;;;21.9;;
51491;SDS011;37569;50.548;8.778;2022-11-20T17:50:05;50.8;;;22.8;;
51491;SDS011;37569;50.548;8.778;2022-11-20T17:55:05;46.5;;;22.4;;
51491;SDS011;37569;50.548;8.778;2022-11-20T18:00:05;51.1;;;23;;
51491;SDS011;37569;50.548;8.778;2022-11-20T18:05:05;45.5;;;22.6;;
51491;SDS011;37569;50.548;8.778;2022-11-20T18:10:06;47.2;;;23.5;;
51491;SDS011;37569;50.548;8.778;2022-11-20T18:15:06;47.2;;;20.7;;
51491;SDS011;37569;50.548;8.778;2022-11-20T18:20:06;46.1;;;20.3;;
51491;SDS011;37569;50.548;8.778;2022-11-20T18:25:06;44.3;;;20.2;;
51491;SDS011;37569;50.548;8.778;2022-11-20T18:30:06;45.4;;;22.1;;
51491;SDS011;37569;50.548;8.778;2022-11-20T18:35:06;46.3;;;22.4;;
51491;SDS011;37569;50.548;8.778;2022-11-20T18:40:06;43.4;;;22.9;;
51491;SDS011;37569;50.548;8.778;2022-11-20T18:45:06;40.8;;;19.3;;
51491;SDS011;37569;50.548;8.778;2022-11-20T18:50:07;37.2;;;18;;
51491;SDS011;37569;50.548;8.778;2022-11-20T18:55:06;29.5;;;16.5;;
51491;SDS011;37569;50.548;8.778;2022-11-20T19:00:07;33.4;;;16.9;;
51491;SDS011;37569;50.548;8.778;2022-11-20T19:05:07;32.2;;;17.1;;
51491;SDS011;37569;50.548;8.778;2022-11-20T19:10:07;29.6;;;16.5;;
51491;SDS011;37569;50.548;8.778;2022-11-20T19:15:07;30.9;;;16.1;;
51491;SDS011;37569;50.548;8.778;2022-11-20T19:20:07;27.2;;;15.3;;
51491;SDS011;37569;50.548;8.778;2022-11-20T19:25:07;26.6;;;14.3;;
51491;SDS011;37569;50.548;8.778;2022-11-20T19:30:08;27.9;;;14.8;;
51491;SDS011;37569;50.548;8.778;2022-11-20T19:35:07;25.6;;;14.2;;
51491;SDS011;37569;50.548;8.778;2022-11-20T19:40:08;24.7;;;13.5;;
51491;SDS011;37569;50.548;8.778;2022-11-20T19:45:08;26.5;;;13.6;;
51491;SDS011;37569;50.548;8.778;2022-11-20T19:50:08;23.9;;;13.3;;
51491;SDS011;37569;50.548;8.778;2022-11-20T19:55:08;22.9;;;12.7;;
51491;SDS011;37569;50.548;8.778;2022-11-20T20:00:09;24.4;;;14.5;;
51491;SDS011;37569;50.548;8.778;2022-11-20T20:05:09;21.8;;;12.4;;
51491;SDS011;37569;50.548;8.778;2022-11-20T20:10:09;21.3;;;13.1;;
51491;SDS011;37569;50.548;8.778;2022-11-20T20:15:09;19.3;;;12.1;;
51491;SDS011;37569;50.548;8.778;2022-11-20T20:20:09;17.2;;;11.2;;
51491;SDS011;37569;50.548;8.778;2022-11-20T20:25:09;18.4;;;10.6;;
51491;SDS011;37569;50.548;8.778;2022-11-20T20:30:10;13.7;;;9.4;;
51491;SDS011;37569;50.548;8.778;2022-11-20T20:35:09;14.8;;;10.1;;
51491;SDS011;37569;50.548;8.778;2022-11-20T20:40:10;12.2;;;8.2;;
51491;SDS011;37569;50.548;8.778;2022-11-20T20:45:10;11.1;;;7.4;;
51491;SDS011;37569;50.548;8.778;2022-11-20T20:50:10;9;;;6.7;;
51491;SDS011;37569;50.548;8.778;2022-11-20T20:55:10;9.3;;;6.3;;
51491;SDS011;37569;50.548;8.778;2022-11-20T21:00:10;9.3;;;6.3;;
51491;SDS011;37569;50.548;8.778;2022-11-20T21:05:11;9;;;6.1;;
51491;SDS011;37569;50.548;8.778;2022-11-20T21:10:11;8;;;5.4;;
51491;SDS011;37569;50.548;8.778;2022-11-20T21:15:11;6.5;;;4.2;;
51491;SDS011;37569;50.548;8.778;2022-11-20T21:20:11;6;;;3.3;;
51491;SDS011;37569;50.548;8.778;2022-11-20T21:25:11;4;;;2.7;;
51491;SDS011;37569;50.548;8.778;2022-11-20T21:30:12;8.9;;;2.6;;
51491;SDS011;37569;50.548;8.778;2022-11-20T21:35:12;5.5;;;2.6;;
51491;SDS011;37569;50.548;8.778;2022-11-20T21:40:12;4.8;;;2.3;;
51491;SDS011;37569;50.548;8.778;2022-11-20T21:45:12;5.3;;;2.3;;
51491;SDS011;37569;50.548;8.778;2022-11-20T21:50:12;3.9;;;2.1;;
51491;SDS011;37569;50.548;8.778;2022-11-20T21:55:12;5.3;;;2.4;;
51491;SDS011;37569;50.548;8.778;2022-11-20T22:00:13;4.1;;;2.1;;
51491;SDS011;37569;50.548;8.778;2022-11-20T22:05:13;4.8;;;2;;
51491;SDS011;37569;50.548;8.778;2022-11-20T22:10:13;5.4;;;1.9;;
51491;SDS011;37569;50.548;8.778;2022-11-20T22:15:13;5.4;;;1.9;;
51491;SDS011;37569;50.548;8.778;2022-11-20T22:20:13;5.1;;;2;;
51491;SDS011;37569;50.548;8.778;2022-11-20T22:25:13;4.6;;;2;;
51491;SDS011;37569;50.548;8.778;2022-11-20T22:30:14;4.3;;;2;;
51491;SDS011;37569;50.548;8.778;2022-11-20T22:35:14;4.7;;;2.1;;
51491;SDS011;37569;50.548;8.778;2022-11-20T22:40:14;5;;;2.1;;
51491;SDS011;37569;50.548;8.778;2022-11-20T22:45:14;3.5;;;2.1;;
51491;SDS011;37569;50.548;8.778;2022-11-20T22:50:15;7.2;;;1.9;;
51491;SDS011;37569;50.548;8.778;2022-11-20T22:55:15;6.3;;;1.8;;
51491;SDS011;37569;50.548;8.778;2022-11-20T23:00:15;6.7;;;2;;
51491;SDS011;37569;50.548;8.778;2022-11-20T23:05:15;7.2;;;2.1;;
51491;SDS011;37569;50.548;8.778;2022-11-20T23:10:15;4.5;;;1.8;;
51491;SDS011;37569;50.548;8.778;2022-11-20T23:15:15;4.7;;;1.7;;
51491;SDS011;37569;50.548;8.778;2022-11-20T23:20:16;6.8;;;2.1;;
51491;SDS011;37569;50.548;8.778;2022-11-20T23:25:16;4.4;;;1.8;;
51491;SDS011;37569;50.548;8.778;2022-11-20T23:30:16;5.8;;;2.1;;
51491;SDS011;37569;50.548;8.778;2022-11-20T23:35:16;5.6;;;1.7;;
51491;SDS011;37569;50.548;8.778;2022-11-20T23:40:17;6.1;;;2.1;;
51491;SDS011;37569;50.548;8.778;2022-11-20T23:45:17;5.6;;;1.7;;
51491;SDS011;37569;50.548;8.778;2022-11-20T23:50:17;4;;;1.9;;
51491;SDS011;37569;50.548;8.778;2022-11-20T23:55:17;5.3;;;1.9;;
